sensor_id;sensor_type;location;lat;lon;timestamp;pressure;altitude;pressure_sealevel;temperature;humidity
36248;BME280;22287;50.824;5.644;2022-11-18T00:00:55;98784.00;;;11.45;68.83
36248;BME280;22287;50.824;5.644;2022-11-18T00:03:22;98783.53;;;11.56;68.61
36248;BME280;22287;50.824;5.644;2022-11-18T00:05:55;98780.91;;;11.86;67.92
36248;BME280;22287;50.824;5.644;2022-11-18T00:08:38;98785.47;;;11.70;68.19
36248;BME280;22287;50.824;5.644;2022-11-18T00:11:16;98787.53;;;11.46;68.78
36248;BME280;22287;50.824;5.644;2022-11-18T00:14:05;98792.88;;;11.54;69.25
36248;BME280;22287;50.824;5.644;2022-11-18T00:17:01;98798.16;;;11.47;69.11
36248;BME280;22287;50.824;5.644;2022-11-18T00:19:35;98805.09;;;11.27;69.77
36248;BME280;22287;50.824;5.644;2022-11-18T00:22:04;98797.94;;;11.34;69.76
36248;BME280;22287;50.824;5.644;2022-11-18T00:24:31;98796.31;;;11.48;69.00
36248;BME280;22287;50.824;5.644;2022-11-18T00:26:58;98809.63;;;11.49;69.17
36248;BME280;22287;50.824;5.644;2022-11-18T00:29:25;98808.13;;;11.32;69.59
36248;BME280;22287;50.824;5.644;2022-11-18T00:31:54;98810.06;;;11.38;68.70
36248;BME280;22287;50.824;5.644;2022-11-18T00:34:22;98810.84;;;11.47;68.62
36248;BME280;22287;50.824;5.644;2022-11-18T00:36:52;98806.56;;;11.52;68.38
36248;BME280;22287;50.824;5.644;2022-11-18T00:39:19;98815.09;;;11.27;68.85
36248;BME280;22287;50.824;5.644;2022-11-18T00:41:47;98813.13;;;11.35;68.52
36248;BME280;22287;50.824;5.644;2022-11-18T00:44:32;98821.28;;;11.50;67.82
36248;BME280;22287;50.824;5.644;2022-11-18T00:46:59;98819.81;;;11.47;68.03
36248;BME280;22287;50.824;5.644;2022-11-18T00:49:26;98816.53;;;11.52;67.60
36248;BME280;22287;50.824;5.644;2022-11-18T00:51:53;98821.00;;;11.45;67.63
36248;BME280;22287;50.824;5.644;2022-11-18T00:54:20;98819.50;;;10.97;69.40
36248;BME280;22287;50.824;5.644;2022-11-18T00:56:46;98826.13;;;11.17;68.42
36248;BME280;22287;50.824;5.644;2022-11-18T00:59:13;98834.25;;;11.40;67.78
36248;BME280;22287;50.824;5.644;2022-11-18T01:01:40;98830.09;;;11.29;67.93
36248;BME280;22287;50.824;5.644;2022-11-18T01:04:07;98835.03;;;11.26;68.33
36248;BME280;22287;50.824;5.644;2022-11-18T01:06:34;98833.59;;;11.15;68.02
36248;BME280;22287;50.824;5.644;2022-11-18T01:09:01;98834.59;;;11.14;68.13
36248;BME280;22287;50.824;5.644;2022-11-18T01:11:28;98843.78;;;10.82;68.99
36248;BME280;22287;50.824;5.644;2022-11-18T01:14:13;98844.94;;;10.88;68.73
36248;BME280;22287;50.824;5.644;2022-11-18T01:16:40;98852.09;;;10.73;68.91
36248;BME280;22287;50.824;5.644;2022-11-18T01:19:06;98852.75;;;10.75;68.85
36248;BME280;22287;50.824;5.644;2022-11-18T01:21:33;98857.09;;;10.84;68.41
36248;BME280;22287;50.824;5.644;2022-11-18T01:24:00;98860.59;;;10.92;67.74
36248;BME280;22287;50.824;5.644;2022-11-18T01:26:27;98855.34;;;10.99;67.81
36248;BME280;22287;50.824;5.644;2022-11-18T01:28:56;98862.78;;;10.58;68.68
36248;BME280;22287;50.824;5.644;2022-11-18T01:31:23;98866.59;;;10.72;68.24
36248;BME280;22287;50.824;5.644;2022-11-18T01:33:50;98868.28;;;11.03;67.04
36248;BME280;22287;50.824;5.644;2022-11-18T01:36:25;98870.88;;;10.97;66.87
36248;BME280;22287;50.824;5.644;2022-11-18T01:38:53;98878.72;;;10.84;67.31
36248;BME280;22287;50.824;5.644;2022-11-18T01:41:23;98882.75;;;10.88;67.46
36248;BME280;22287;50.824;5.644;2022-11-18T01:46:29;98887.06;;;10.66;67.87
36248;BME280;22287;50.824;5.644;2022-11-18T01:51:32;98891.66;;;10.66;67.33
36248;BME280;22287;50.824;5.644;2022-11-18T01:54:08;98904.44;;;10.33;68.83
36248;BME280;22287;50.824;5.644;2022-11-18T01:56:44;98909.25;;;10.53;68.08
36248;BME280;22287;50.824;5.644;2022-11-18T01:59:17;98909.38;;;10.68;67.34
36248;BME280;22287;50.824;5.644;2022-11-18T02:01:45;98912.47;;;10.49;67.40
36248;BME280;22287;50.824;5.644;2022-11-18T02:04:13;98910.31;;;10.36;67.86
36248;BME280;22287;50.824;5.644;2022-11-18T02:06:41;98913.72;;;10.14;68.84
36248;BME280;22287;50.824;5.644;2022-11-18T02:09:10;98913.72;;;10.06;69.03
36248;BME280;22287;50.824;5.644;2022-11-18T02:11:38;98908.97;;;10.32;68.23
36248;BME280;22287;50.824;5.644;2022-11-18T02:14:26;98919.59;;;10.34;68.05
36248;BME280;22287;50.824;5.644;2022-11-18T02:22:33;98929.88;;;10.38;68.07
36248;BME280;22287;50.824;5.644;2022-11-18T02:27:57;98941.00;;;10.51;67.64
36248;BME280;22287;50.824;5.644;2022-11-18T02:33:18;98955.53;;;10.42;68.04
36248;BME280;22287;50.824;5.644;2022-11-18T02:35:55;98955.53;;;10.42;68.65
36248;BME280;22287;50.824;5.644;2022-11-18T02:38:27;98954.81;;;10.56;68.44
36248;BME280;22287;50.824;5.644;2022-11-18T02:41:07;98949.91;;;10.60;68.05
36248;BME280;22287;50.824;5.644;2022-11-18T02:43:38;98953.09;;;10.63;68.01
36248;BME280;22287;50.824;5.644;2022-11-18T02:46:09;98957.50;;;10.65;67.96
36248;BME280;22287;50.824;5.644;2022-11-18T02:48:43;98962.53;;;10.68;67.88
36248;BME280;22287;50.824;5.644;2022-11-18T02:51:13;98954.44;;;10.68;68.09
36248;BME280;22287;50.824;5.644;2022-11-18T02:53:43;98963.16;;;10.78;67.71
36248;BME280;22287;50.824;5.644;2022-11-18T02:56:13;98963.88;;;10.72;68.22
36248;BME280;22287;50.824;5.644;2022-11-18T02:58:41;98955.59;;;10.73;68.24
36248;BME280;22287;50.824;5.644;2022-11-18T03:01:15;98959.34;;;10.64;68.41
36248;BME280;22287;50.824;5.644;2022-11-18T03:03:44;98961.69;;;10.67;68.66
36248;BME280;22287;50.824;5.644;2022-11-18T03:06:39;98959.78;;;10.84;67.92
36248;BME280;22287;50.824;5.644;2022-11-18T03:14:58;98984.31;;;10.74;68.39
36248;BME280;22287;50.824;5.644;2022-11-18T03:22:48;98980.44;;;11.07;68.45
36248;BME280;22287;50.824;5.644;2022-11-18T03:25:28;98998.19;;;11.10;68.40
36248;BME280;22287;50.824;5.644;2022-11-18T03:28:02;98991.44;;;11.06;68.19
36248;BME280;22287;50.824;5.644;2022-11-18T03:30:33;98995.91;;;11.21;67.75
36248;BME280;22287;50.824;5.644;2022-11-18T03:33:09;99002.88;;;11.16;67.88
36248;BME280;22287;50.824;5.644;2022-11-18T03:35:42;99008.63;;;11.13;67.84
36248;BME280;22287;50.824;5.644;2022-11-18T03:38:17;99013.72;;;11.08;68.15
36248;BME280;22287;50.824;5.644;2022-11-18T03:40:50;99017.13;;;11.02;68.31
36248;BME280;22287;50.824;5.644;2022-11-18T03:43:23;99012.16;;;11.21;67.77
36248;BME280;22287;50.824;5.644;2022-11-18T03:45:54;99017.78;;;11.12;67.98
36248;BME280;22287;50.824;5.644;2022-11-18T03:48:30;99013.63;;;10.93;68.73
36248;BME280;22287;50.824;5.644;2022-11-18T03:51:02;99017.84;;;10.96;68.29
36248;BME280;22287;50.824;5.644;2022-11-18T03:53:34;99026.13;;;10.94;68.55
36248;BME280;22287;50.824;5.644;2022-11-18T03:56:18;99020.53;;;11.04;68.14
36248;BME280;22287;50.824;5.644;2022-11-18T03:59:00;99026.94;;;11.03;68.46
36248;BME280;22287;50.824;5.644;2022-11-18T04:01:42;99021.28;;;11.20;67.88
36248;BME280;22287;50.824;5.644;2022-11-18T04:04:12;99028.94;;;11.09;67.82
36248;BME280;22287;50.824;5.644;2022-11-18T04:06:53;99032.22;;;11.27;67.56
36248;BME280;22287;50.824;5.644;2022-11-18T04:09:33;99036.31;;;10.76;69.25
36248;BME280;22287;50.824;5.644;2022-11-18T04:12:19;99041.97;;;10.97;68.79
36248;BME280;22287;50.824;5.644;2022-11-18T04:14:47;99036.81;;;11.27;68.49
36248;BME280;22287;50.824;5.644;2022-11-18T04:17:22;99040.91;;;11.14;68.37
36248;BME280;22287;50.824;5.644;2022-11-18T04:19:51;99044.44;;;11.23;67.89
36248;BME280;22287;50.824;5.644;2022-11-18T04:22:18;99050.88;;;11.14;68.13
36248;BME280;22287;50.824;5.644;2022-11-18T04:24:45;99053.59;;;11.14;67.92
36248;BME280;22287;50.824;5.644;2022-11-18T04:27:12;99050.59;;;11.01;68.23
36248;BME280;22287;50.824;5.644;2022-11-18T04:29:39;99064.47;;;10.98;68.38
36248;BME280;22287;50.824;5.644;2022-11-18T04:32:06;99065.78;;;11.10;68.32
36248;BME280;22287;50.824;5.644;2022-11-18T04:34:33;99069.34;;;10.94;68.46
36248;BME280;22287;50.824;5.644;2022-11-18T04:37:01;99064.47;;;10.98;68.45
36248;BME280;22287;50.824;5.644;2022-11-18T04:39:27;99068.22;;;10.81;68.20
36248;BME280;22287;50.824;5.644;2022-11-18T04:41:54;99080.06;;;10.55;69.17
36248;BME280;22287;50.824;5.644;2022-11-18T04:44:23;99082.75;;;10.55;68.74
36248;BME280;22287;50.824;5.644;2022-11-18T04:46:51;99079.75;;;10.42;69.29
36248;BME280;22287;50.824;5.644;2022-11-18T04:49:18;99085.31;;;10.41;69.23
36248;BME280;22287;50.824;5.644;2022-11-18T04:51:45;99091.22;;;10.28;69.30
36248;BME280;22287;50.824;5.644;2022-11-18T04:54:13;99095.25;;;10.65;68.24
36248;BME280;22287;50.824;5.644;2022-11-18T04:56:41;99104.03;;;10.50;68.21
36248;BME280;22287;50.824;5.644;2022-11-18T04:59:15;99100.66;;;10.65;67.97
36248;BME280;22287;50.824;5.644;2022-11-18T05:01:43;99108.09;;;10.38;68.31
36248;BME280;22287;50.824;5.644;2022-11-18T05:04:14;99103.31;;;10.08;69.18
36248;BME280;22287;50.824;5.644;2022-11-18T05:06:41;99106.81;;;9.84;69.48
36248;BME280;22287;50.824;5.644;2022-11-18T05:09:09;99104.41;;;9.65;69.75
36248;BME280;22287;50.824;5.644;2022-11-18T05:11:36;99106.63;;;9.78;69.48
36248;BME280;22287;50.824;5.644;2022-11-18T05:14:27;99109.47;;;9.68;69.52
36248;BME280;22287;50.824;5.644;2022-11-18T05:16:55;99118.38;;;9.53;69.82
36248;BME280;22287;50.824;5.644;2022-11-18T05:19:22;99110.94;;;9.55;69.84
36248;BME280;22287;50.824;5.644;2022-11-18T05:21:50;99117.56;;;9.68;69.39
36248;BME280;22287;50.824;5.644;2022-11-18T05:24:17;99126.69;;;9.83;68.48
36248;BME280;22287;50.824;5.644;2022-11-18T05:26:45;99128.19;;;9.78;68.68
36248;BME280;22287;50.824;5.644;2022-11-18T05:29:11;99138.22;;;9.93;67.89
36248;BME280;22287;50.824;5.644;2022-11-18T05:31:38;99134.59;;;9.69;68.58
36248;BME280;22287;50.824;5.644;2022-11-18T05:34:05;99137.47;;;9.75;68.12
36248;BME280;22287;50.824;5.644;2022-11-18T05:36:32;99148.56;;;9.64;68.77
36248;BME280;22287;50.824;5.644;2022-11-18T05:38:59;99144.56;;;9.76;67.90
36248;BME280;22287;50.824;5.644;2022-11-18T05:41:26;99156.06;;;9.86;67.61
36248;BME280;22287;50.824;5.644;2022-11-18T05:44:11;99146.22;;;9.27;69.37
36248;BME280;22287;50.824;5.644;2022-11-18T05:46:38;99158.03;;;9.34;69.15
36248;BME280;22287;50.824;5.644;2022-11-18T05:49:05;99158.72;;;9.36;69.48
36248;BME280;22287;50.824;5.644;2022-11-18T05:51:33;99161.06;;;9.31;69.20
36248;BME280;22287;50.824;5.644;2022-11-18T05:54:03;99157.81;;;9.28;69.45
36248;BME280;22287;50.824;5.644;2022-11-18T05:56:40;99165.50;;;9.40;68.73
36248;BME280;22287;50.824;5.644;2022-11-18T05:59:07;99163.81;;;9.48;68.48
36248;BME280;22287;50.824;5.644;2022-11-18T06:01:56;99166.03;;;9.44;68.11
36248;BME280;22287;50.824;5.644;2022-11-18T06:04:35;99176.56;;;9.29;68.64
36248;BME280;22287;50.824;5.644;2022-11-18T06:07:12;99178.56;;;9.27;69.13
36248;BME280;22287;50.824;5.644;2022-11-18T06:09:43;99182.56;;;9.23;69.50
36248;BME280;22287;50.824;5.644;2022-11-18T06:12:14;99181.50;;;9.42;68.49
36248;BME280;22287;50.824;5.644;2022-11-18T06:14:46;99188.31;;;9.28;69.00
36248;BME280;22287;50.824;5.644;2022-11-18T06:17:19;99193.03;;;9.26;69.06
36248;BME280;22287;50.824;5.644;2022-11-18T06:19:48;99195.91;;;9.25;69.02
36248;BME280;22287;50.824;5.644;2022-11-18T06:22:15;99196.38;;;9.20;68.81
36248;BME280;22287;50.824;5.644;2022-11-18T06:24:42;99198.22;;;9.20;68.17
36248;BME280;22287;50.824;5.644;2022-11-18T06:27:10;99199.13;;;9.03;68.95
36248;BME280;22287;50.824;5.644;2022-11-18T06:29:37;99207.00;;;9.22;67.93
36248;BME280;22287;50.824;5.644;2022-11-18T06:32:04;99199.13;;;9.03;68.41
36248;BME280;22287;50.824;5.644;2022-11-18T06:34:31;99207.22;;;9.03;68.63
36248;BME280;22287;50.824;5.644;2022-11-18T06:37:15;99211.22;;;8.99;69.25
36248;BME280;22287;50.824;5.644;2022-11-18T06:39:42;99212.59;;;9.03;69.10
36248;BME280;22287;50.824;5.644;2022-11-18T06:42:10;99220.41;;;8.88;69.78
36248;BME280;22287;50.824;5.644;2022-11-18T06:44:37;99217.53;;;8.90;69.51
36248;BME280;22287;50.824;5.644;2022-11-18T06:47:03;99221.75;;;8.92;69.20
36248;BME280;22287;50.824;5.644;2022-11-18T06:49:30;99234.09;;;8.95;68.88
36248;BME280;22287;50.824;5.644;2022-11-18T06:51:57;99242.63;;;8.90;69.41
36248;BME280;22287;50.824;5.644;2022-11-18T06:54:24;99236.94;;;8.93;68.85
36248;BME280;22287;50.824;5.644;2022-11-18T06:56:51;99238.31;;;8.97;68.58
36248;BME280;22287;50.824;5.644;2022-11-18T06:59:17;99247.56;;;8.77;69.09
36248;BME280;22287;50.824;5.644;2022-11-18T07:01:49;99252.50;;;8.81;69.13
36248;BME280;22287;50.824;5.644;2022-11-18T07:04:18;99254.56;;;8.88;68.43
36248;BME280;22287;50.824;5.644;2022-11-18T07:06:45;99258.56;;;9.01;68.11
36248;BME280;22287;50.824;5.644;2022-11-18T07:09:12;99271.81;;;8.77;68.58
36248;BME280;22287;50.824;5.644;2022-11-18T07:11:39;99266.28;;;8.61;69.25
36248;BME280;22287;50.824;5.644;2022-11-18T07:14:07;99263.97;;;8.66;69.08
36248;BME280;22287;50.824;5.644;2022-11-18T07:16:35;99264.81;;;8.66;69.18
36248;BME280;22287;50.824;5.644;2022-11-18T07:19:08;99273.66;;;8.76;68.84
36248;BME280;22287;50.824;5.644;2022-11-18T07:21:36;99267.41;;;8.94;68.41
36248;BME280;22287;50.824;5.644;2022-11-18T07:24:05;99276.09;;;8.70;69.05
36248;BME280;22287;50.824;5.644;2022-11-18T07:26:33;99285.44;;;8.58;69.89
36248;BME280;22287;50.824;5.644;2022-11-18T07:29:00;99281.91;;;8.75;69.72
36248;BME280;22287;50.824;5.644;2022-11-18T07:31:27;99290.75;;;8.50;70.80
36248;BME280;22287;50.824;5.644;2022-11-18T07:33:54;99298.38;;;8.72;70.23
36248;BME280;22287;50.824;5.644;2022-11-18T07:36:26;99301.13;;;8.45;71.21
36248;BME280;22287;50.824;5.644;2022-11-18T07:39:00;99301.13;;;8.62;70.82
36248;BME280;22287;50.824;5.644;2022-11-18T07:41:28;99300.13;;;8.81;70.37
36248;BME280;22287;50.824;5.644;2022-11-18T07:43:56;99313.69;;;8.71;70.50
36248;BME280;22287;50.824;5.644;2022-11-18T07:46:35;99315.47;;;8.80;70.76
36248;BME280;22287;50.824;5.644;2022-11-18T07:49:06;99317.75;;;8.93;70.88
36248;BME280;22287;50.824;5.644;2022-11-18T07:51:36;99331.41;;;8.92;70.24
36248;BME280;22287;50.824;5.644;2022-11-18T07:54:08;99332.31;;;9.00;70.35
36248;BME280;22287;50.824;5.644;2022-11-18T07:56:36;99329.13;;;8.87;70.95
36248;BME280;22287;50.824;5.644;2022-11-18T07:59:03;99335.53;;;9.21;70.82
36248;BME280;22287;50.824;5.644;2022-11-18T08:01:30;99335.31;;;9.58;69.46
36248;BME280;22287;50.824;5.644;2022-11-18T08:04:04;99329.06;;;9.58;70.02
36248;BME280;22287;50.824;5.644;2022-11-18T08:06:32;99328.63;;;9.44;71.38
36248;BME280;22287;50.824;5.644;2022-11-18T08:09:00;99326.25;;;9.67;70.40
36248;BME280;22287;50.824;5.644;2022-11-18T08:11:27;99328.28;;;9.65;70.12
36248;BME280;22287;50.824;5.644;2022-11-18T08:13:55;99341.59;;;9.67;70.50
36248;BME280;22287;50.824;5.644;2022-11-18T08:16:23;99332.59;;;9.84;69.89
36248;BME280;22287;50.824;5.644;2022-11-18T08:18:51;99335.56;;;9.98;69.96
36248;BME280;22287;50.824;5.644;2022-11-18T08:21:19;99348.69;;;10.19;69.70
36248;BME280;22287;50.824;5.644;2022-11-18T08:23:52;99340.13;;;9.72;71.06
36248;BME280;22287;50.824;5.644;2022-11-18T08:26:19;99351.66;;;9.82;70.22
36248;BME280;22287;50.824;5.644;2022-11-18T08:28:47;99349.38;;;9.95;70.25
36248;BME280;22287;50.824;5.644;2022-11-18T08:31:19;99359.28;;;10.13;70.54
36248;BME280;22287;50.824;5.644;2022-11-18T08:33:47;99352.44;;;10.26;70.35
36248;BME280;22287;50.824;5.644;2022-11-18T08:36:16;99357.66;;;10.28;70.53
36248;BME280;22287;50.824;5.644;2022-11-18T08:38:43;99362.53;;;10.16;70.56
36248;BME280;22287;50.824;5.644;2022-11-18T08:41:12;99360.31;;;10.20;70.66
36248;BME280;22287;50.824;5.644;2022-11-18T08:43:40;99366.63;;;10.28;70.74
36248;BME280;22287;50.824;5.644;2022-11-18T08:46:06;99368.34;;;10.37;70.16
36248;BME280;22287;50.824;5.644;2022-11-18T08:48:33;99374.06;;;10.34;71.17
36248;BME280;22287;50.824;5.644;2022-11-18T08:51:00;99372.31;;;10.59;70.31
36248;BME280;22287;50.824;5.644;2022-11-18T08:53:27;99372.22;;;10.77;69.21
36248;BME280;22287;50.824;5.644;2022-11-18T08:55:56;99370.88;;;10.81;70.12
36248;BME280;22287;50.824;5.644;2022-11-18T08:58:23;99369.38;;;10.94;68.81
36248;BME280;22287;50.824;5.644;2022-11-18T09:00:50;99377.66;;;10.85;69.94
36248;BME280;22287;50.824;5.644;2022-11-18T09:03:17;99385.22;;;10.73;69.95
36248;BME280;22287;50.824;5.644;2022-11-18T09:05:44;99385.69;;;10.27;71.37
36248;BME280;22287;50.824;5.644;2022-11-18T09:08:11;99384.13;;;10.58;71.20
36248;BME280;22287;50.824;5.644;2022-11-18T09:10:38;99387.09;;;10.89;70.36
36248;BME280;22287;50.824;5.644;2022-11-18T09:13:05;99388.63;;;10.91;69.82
36248;BME280;22287;50.824;5.644;2022-11-18T09:15:51;99395.22;;;10.89;69.91
36248;BME280;22287;50.824;5.644;2022-11-18T09:18:18;99396.28;;;11.04;69.70
36248;BME280;22287;50.824;5.644;2022-11-18T09:20:59;99398.97;;;10.96;69.85
36248;BME280;22287;50.824;5.644;2022-11-18T09:23:27;99404.44;;;11.52;67.79
36248;BME280;22287;50.824;5.644;2022-11-18T09:26:14;99403.44;;;11.37;67.99
36248;BME280;22287;50.824;5.644;2022-11-18T09:28:42;99404.50;;;10.94;69.54
36248;BME280;22287;50.824;5.644;2022-11-18T09:31:13;99409.81;;;11.12;69.68
36248;BME280;22287;50.824;5.644;2022-11-18T09:33:41;99410.16;;;11.17;69.52
36248;BME280;22287;50.824;5.644;2022-11-18T09:36:19;99414.59;;;11.42;69.34
36248;BME280;22287;50.824;5.644;2022-11-18T09:38:46;99411.38;;;11.63;68.30
36248;BME280;22287;50.824;5.644;2022-11-18T09:49:26;99422.91;;;11.73;70.20
36248;BME280;22287;50.824;5.644;2022-11-18T09:51:55;99430.84;;;11.83;69.67
36248;BME280;22287;50.824;5.644;2022-11-18T09:54:29;99442.19;;;11.70;70.69
36248;BME280;22287;50.824;5.644;2022-11-18T09:56:57;99441.31;;;12.10;69.63
36248;BME280;22287;50.824;5.644;2022-11-18T09:59:27;99434.91;;;11.95;69.55
36248;BME280;22287;50.824;5.644;2022-11-18T10:05:16;99445.75;;;11.78;69.78
36248;BME280;22287;50.824;5.644;2022-11-18T10:21:44;99472.97;;;11.93;69.88
36248;BME280;22287;50.824;5.644;2022-11-18T10:24:18;99465.56;;;11.79;70.59
36248;BME280;22287;50.824;5.644;2022-11-18T10:26:46;99471.44;;;11.83;69.57
36248;BME280;22287;50.824;5.644;2022-11-18T10:29:13;99474.63;;;12.26;68.44
36248;BME280;22287;50.824;5.644;2022-11-18T10:32:05;99472.03;;;12.57;67.93
36248;BME280;22287;50.824;5.644;2022-11-18T10:34:34;99482.94;;;12.33;68.78
36248;BME280;22287;50.824;5.644;2022-11-18T10:37:05;99482.63;;;12.12;69.49
36248;BME280;22287;50.824;5.644;2022-11-18T10:39:32;99476.84;;;12.07;70.01
36248;BME280;22287;50.824;5.644;2022-11-18T10:42:04;99477.72;;;11.83;70.44
36248;BME280;22287;50.824;5.644;2022-11-18T10:44:46;99486.53;;;12.01;69.73
36248;BME280;22287;50.824;5.644;2022-11-18T10:47:21;99482.09;;;12.24;69.15
36248;BME280;22287;50.824;5.644;2022-11-18T10:49:50;99476.00;;;12.22;68.07
36248;BME280;22287;50.824;5.644;2022-11-18T10:52:18;99486.34;;;12.11;68.03
36248;BME280;22287;50.824;5.644;2022-11-18T10:55:05;99485.16;;;12.05;69.28
36248;BME280;22287;50.824;5.644;2022-11-18T10:57:39;99476.16;;;12.37;68.38
36248;BME280;22287;50.824;5.644;2022-11-18T11:08:59;99477.63;;;12.64;67.06
36248;BME280;22287;50.824;5.644;2022-11-18T11:11:38;99484.66;;;12.26;68.57
36248;BME280;22287;50.824;5.644;2022-11-18T11:14:16;99483.28;;;12.30;68.98
36248;BME280;22287;50.824;5.644;2022-11-18T11:17:11;99481.28;;;12.08;68.78
36248;BME280;22287;50.824;5.644;2022-11-18T11:22:15;99487.34;;;12.18;68.10
36248;BME280;22287;50.824;5.644;2022-11-18T11:24:42;99482.44;;;12.21;68.29
36248;BME280;22287;50.824;5.644;2022-11-18T11:27:17;99490.91;;;11.94;69.02
36248;BME280;22287;50.824;5.644;2022-11-18T11:33:04;99493.44;;;12.28;68.54
36248;BME280;22287;50.824;5.644;2022-11-18T11:40:41;99498.88;;;12.28;68.13
36248;BME280;22287;50.824;5.644;2022-11-18T11:46:18;99502.41;;;11.96;69.62
36248;BME280;22287;50.824;5.644;2022-11-18T11:49:14;99493.81;;;12.17;69.39
36248;BME280;22287;50.824;5.644;2022-11-18T12:00:13;99517.28;;;11.68;69.90
36248;BME280;22287;50.824;5.644;2022-11-18T12:03:09;99504.47;;;11.94;68.90
36248;BME280;22287;50.824;5.644;2022-11-18T12:05:40;99504.97;;;12.14;68.78
36248;BME280;22287;50.824;5.644;2022-11-18T12:08:24;99511.00;;;12.64;66.54
36248;BME280;22287;50.824;5.644;2022-11-18T12:10:57;99506.31;;;12.18;68.00
36248;BME280;22287;50.824;5.644;2022-11-18T12:14:04;99511.56;;;11.87;68.74
36248;BME280;22287;50.824;5.644;2022-11-18T12:16:48;99513.41;;;12.35;66.99
36248;BME280;22287;50.824;5.644;2022-11-18T12:19:20;99519.50;;;12.21;67.71
36248;BME280;22287;50.824;5.644;2022-11-18T12:21:55;99511.06;;;12.16;67.69
36248;BME280;22287;50.824;5.644;2022-11-18T12:30:03;99520.88;;;12.17;68.16
36248;BME280;22287;50.824;5.644;2022-11-18T12:32:44;99517.59;;;12.70;67.00
36248;BME280;22287;50.824;5.644;2022-11-18T12:37:42;99521.53;;;12.27;67.47
36248;BME280;22287;50.824;5.644;2022-11-18T12:40:30;99528.69;;;11.96;69.45
36248;BME280;22287;50.824;5.644;2022-11-18T12:42:58;99518.13;;;11.76;69.45
36248;BME280;22287;50.824;5.644;2022-11-18T12:50:54;99519.69;;;12.19;68.19
36248;BME280;22287;50.824;5.644;2022-11-18T12:53:39;99523.41;;;12.26;68.08
36248;BME280;22287;50.824;5.644;2022-11-18T12:58:36;99526.78;;;12.45;68.59
36248;BME280;22287;50.824;5.644;2022-11-18T13:01:05;99526.28;;;12.17;68.93
36248;BME280;22287;50.824;5.644;2022-11-18T13:03:33;99524.91;;;12.53;67.88
36248;BME280;22287;50.824;5.644;2022-11-18T13:06:03;99524.94;;;12.37;67.98
36248;BME280;22287;50.824;5.644;2022-11-18T13:08:32;99525.97;;;12.20;68.34
36248;BME280;22287;50.824;5.644;2022-11-18T13:11:14;99533.19;;;12.52;67.74
36248;BME280;22287;50.824;5.644;2022-11-18T13:14:01;99535.50;;;12.79;66.54
36248;BME280;22287;50.824;5.644;2022-11-18T13:16:49;99530.88;;;12.95;65.83
36248;BME280;22287;50.824;5.644;2022-11-18T13:19:34;99532.53;;;12.50;68.01
36248;BME280;22287;50.824;5.644;2022-11-18T13:22:01;99539.31;;;12.29;67.80
36248;BME280;22287;50.824;5.644;2022-11-18T13:24:50;99536.06;;;12.58;67.43
36248;BME280;22287;50.824;5.644;2022-11-18T13:27:38;99533.41;;;12.42;67.32
36248;BME280;22287;50.824;5.644;2022-11-18T13:30:11;99535.63;;;12.14;68.04
36248;BME280;22287;50.824;5.644;2022-11-18T13:32:46;99536.03;;;12.74;66.73
36248;BME280;22287;50.824;5.644;2022-11-18T13:35:17;99545.19;;;12.65;66.67
36248;BME280;22287;50.824;5.644;2022-11-18T13:37:57;99541.28;;;12.76;67.20
36248;BME280;22287;50.824;5.644;2022-11-18T13:40:28;99541.31;;;12.52;67.47
36248;BME280;22287;50.824;5.644;2022-11-18T13:42:56;99544.13;;;12.90;66.32
36248;BME280;22287;50.824;5.644;2022-11-18T13:45:25;99547.59;;;12.60;66.74
36248;BME280;22287;50.824;5.644;2022-11-18T13:47:58;99553.38;;;12.41;67.85
36248;BME280;22287;50.824;5.644;2022-11-18T13:50:39;99546.41;;;12.47;68.16
36248;BME280;22287;50.824;5.644;2022-11-18T13:55:58;99548.75;;;12.74;66.60
36248;BME280;22287;50.824;5.644;2022-11-18T14:01:35;99550.56;;;12.98;65.86
36248;BME280;22287;50.824;5.644;2022-11-18T14:04:24;99558.00;;;12.95;65.80
36248;BME280;22287;50.824;5.644;2022-11-18T14:06:51;99556.38;;;12.78;66.23
36248;BME280;22287;50.824;5.644;2022-11-18T14:09:23;99562.41;;;12.96;65.32
36248;BME280;22287;50.824;5.644;2022-11-18T14:12:05;99555.19;;;12.73;65.54
36248;BME280;22287;50.824;5.644;2022-11-18T14:14:47;99553.66;;;12.70;66.53
36248;BME280;22287;50.824;5.644;2022-11-18T14:17:18;99547.59;;;12.60;67.13
36248;BME280;22287;50.824;5.644;2022-11-18T14:19:47;99548.63;;;12.19;68.18
36248;BME280;22287;50.824;5.644;2022-11-18T14:24:42;99555.19;;;12.57;66.91
36248;BME280;22287;50.824;5.644;2022-11-18T14:29:54;99558.38;;;12.76;65.93
36248;BME280;22287;50.824;5.644;2022-11-18T14:32:22;99566.72;;;12.67;66.32
36248;BME280;22287;50.824;5.644;2022-11-18T14:35:00;99562.09;;;12.91;65.51
36248;BME280;22287;50.824;5.644;2022-11-18T14:37:28;99565.31;;;12.79;65.92
36248;BME280;22287;50.824;5.644;2022-11-18T14:39:56;99566.72;;;12.67;66.15
36248;BME280;22287;50.824;5.644;2022-11-18T14:42:23;99570.28;;;12.67;66.13
36248;BME280;22287;50.824;5.644;2022-11-18T14:44:50;99569.75;;;12.72;65.81
36248;BME280;22287;50.824;5.644;2022-11-18T14:47:28;99568.91;;;12.79;65.62
36248;BME280;22287;50.824;5.644;2022-11-18T14:49:55;99570.09;;;12.69;65.65
36248;BME280;22287;50.824;5.644;2022-11-18T14:52:22;99566.25;;;12.39;67.18
36248;BME280;22287;50.824;5.644;2022-11-18T14:54:49;99571.69;;;12.23;67.55
36248;BME280;22287;50.824;5.644;2022-11-18T14:57:17;99572.34;;;12.25;67.35
36248;BME280;22287;50.824;5.644;2022-11-18T14:59:44;99575.72;;;12.11;67.76
36248;BME280;22287;50.824;5.644;2022-11-18T15:02:14;99573.34;;;12.24;67.31
36248;BME280;22287;50.824;5.644;2022-11-18T15:04:41;99579.47;;;12.26;67.15
36248;BME280;22287;50.824;5.644;2022-11-18T15:07:11;99578.94;;;12.06;68.07
36248;BME280;22287;50.824;5.644;2022-11-18T15:09:44;99584.50;;;11.89;68.17
36248;BME280;22287;50.824;5.644;2022-11-18T15:12:11;99587.91;;;12.15;67.47
36248;BME280;22287;50.824;5.644;2022-11-18T15:14:38;99579.63;;;12.08;67.65
36248;BME280;22287;50.824;5.644;2022-11-18T15:17:04;99585.03;;;12.24;67.02